createdAt,value
2018-02-01T00:00:59.107Z,87.71
2018-02-01T00:01:59.119Z,86.24
2018-02-01T00:02:59.131Z,86.53
2018-02-01T00:03:59.163Z,86.82
2018-02-01T00:04:59.180Z,87.48
2018-02-01T00:05:59.179Z,87.10
2018-02-01T00:06:59.199Z,86.63
2018-02-01T00:07:59.214Z,86.63
2018-02-01T00:08:59.228Z,87.57
2018-02-01T00:09:59.243Z,87.67
2018-02-01T00:10:59.259Z,87.29
2018-02-01T00:11:59.277Z,87.76
2018-02-01T00:12:59.300Z,88.05
2018-02-01T00:13:59.309Z,88.20
2018-02-01T00:14:59.330Z,87.48
2018-02-01T00:15:59.343Z,86.72
2018-02-01T00:16:59.352Z,86.72
2018-02-01T00:17:59.372Z,86.05
2018-02-01T00:18:59.389Z,86.34
2018-02-01T00:19:59.400Z,85.86
2018-02-01T00:20:59.417Z,86.05
2018-02-01T00:21:59.428Z,86.24
2018-02-01T00:22:59.449Z,86.24
2018-02-01T00:23:59.467Z,86.43
2018-02-01T00:24:59.477Z,86.43
2018-02-01T00:25:59.497Z,86.34
2018-02-01T00:26:59.513Z,86.77
2018-02-01T00:27:59.528Z,86.01
2018-02-01T00:28:59.544Z,86.96
2018-02-01T00:29:59.562Z,86.24
2018-02-01T00:30:59.575Z,86.63
2018-02-01T00:31:59.583Z,85.96
2018-02-01T00:32:59.604Z,86.82
2018-02-01T00:33:59.663Z,86.39
2018-02-01T00:34:59.633Z,86.30
2018-02-01T00:35:59.649Z,86.39
2018-02-01T00:36:59.663Z,86.58
2018-02-01T00:37:59.685Z,86.63
2018-02-01T00:38:59.699Z,86.34
2018-02-01T00:39:59.708Z,86.39
2018-02-01T00:40:59.753Z,87.34
2018-02-01T00:41:59.733Z,86.96
2018-02-01T00:42:59.754Z,86.87
2018-02-01T00:43:59.767Z,87.24
2018-02-01T00:44:59.788Z,87.43
2018-02-01T00:45:59.795Z,86.96
2018-02-01T00:46:59.817Z,86.68
2018-02-01T00:47:59.832Z,86.68
2018-02-01T00:48:59.843Z,87.62
2018-02-01T00:49:59.861Z,87.62
2018-02-01T00:50:59.886Z,88.43
2018-02-01T00:51:59.893Z,87.43
2018-02-01T00:52:59.957Z,87.53
2018-02-01T00:53:59.922Z,86.82
2018-02-01T00:54:59.941Z,86.72
2018-02-01T00:55:59.955Z,86.63
2018-02-01T00:56:59.969Z,86.72
2018-02-01T00:57:59.986Z,86.91
2018-02-01T00:58:59.997Z,86.63
2018-02-01T01:00:00.026Z,87.57
2018-02-01T01:01:00.044Z,86.91
2018-02-01T01:02:00.048Z,85.96
2018-02-01T01:03:00.057Z,86.34
2018-02-01T01:04:00.073Z,88.20
2018-02-01T01:05:00.096Z,88.57
2018-02-01T01:06:00.127Z,88.53
2018-02-01T01:07:00.120Z,87.48
2018-02-01T01:08:00.133Z,86.63
2018-02-01T01:09:00.150Z,86.63
2018-02-01T01:10:00.173Z,88.48
2018-02-01T01:11:00.181Z,88.95
2018-02-01T01:12:00.196Z,88.71
2018-02-01T01:13:00.211Z,88.43
2018-02-01T01:14:00.232Z,87.48
2018-02-01T01:15:00.242Z,88.05
2018-02-01T01:16:00.258Z,86.82
2018-02-01T01:17:00.275Z,87.38
2018-02-01T01:18:00.292Z,87.72
2018-02-01T01:19:00.309Z,88.57
2018-02-01T01:20:00.317Z,87.86
2018-02-01T01:21:00.333Z,87.53
2018-02-01T01:22:00.350Z,88.29
2018-02-01T01:23:00.366Z,88.24
2018-02-01T01:24:00.379Z,86.82
2018-02-01T01:25:00.395Z,87.48
2018-02-01T01:26:00.410Z,87.43
2018-02-01T01:27:00.426Z,87.91
2018-02-01T01:28:00.440Z,87.38
2018-02-01T01:29:00.465Z,86.63
2018-02-01T01:30:00.490Z,86.77
2018-02-01T01:31:00.491Z,86.82
2018-02-01T01:32:00.500Z,87.57
2018-02-01T01:33:00.517Z,86.58
2018-02-01T01:34:00.536Z,87.43
2018-02-01T01:35:00.553Z,87.91
2018-02-01T01:36:00.566Z,87.62
2018-02-01T01:37:00.582Z,88.10
2018-02-01T01:38:00.598Z,88.39
2018-02-01T01:39:00.606Z,88.48
2018-02-01T01:40:00.624Z,87.72
2018-02-01T01:41:00.633Z,87.38
2018-02-01T01:42:00.654Z,86.72
2018-02-01T01:43:00.675Z,86.24
2018-02-01T01:44:00.684Z,86.87
2018-02-01T01:45:00.698Z,88.29
2018-02-01T01:46:00.712Z,88.95
2018-02-01T01:47:00.729Z,88.57
2018-02-01T01:48:00.748Z,88.05
2018-02-01T01:49:00.766Z,87.48
2018-02-01T01:50:00.787Z,87.29
2018-02-01T01:51:00.796Z,87.95
2018-02-01T01:52:00.806Z,88.05
2018-02-01T01:53:00.822Z,88.57
2018-02-01T01:54:00.840Z,88.62
2018-02-01T01:55:00.853Z,87.86
2018-02-01T01:56:00.872Z,87.76
2018-02-01T01:57:00.881Z,86.91
2018-02-01T01:58:00.898Z,86.24
2018-02-01T01:59:00.919Z,87.10
2018-02-01T02:00:00.930Z,87.19
2018-02-01T02:01:00.946Z,87.53
2018-02-01T02:02:00.965Z,86.82
2018-02-01T02:03:00.976Z,86.96
2018-02-01T02:04:00.989Z,86.91
2018-02-01T02:05:01.007Z,87.05
2018-02-01T02:06:01.022Z,88.20
2018-02-01T02:07:01.034Z,87.72
2018-02-01T02:08:01.055Z,87.05
2018-02-01T02:09:01.067Z,86.53
2018-02-01T02:10:01.082Z,86.72
2018-02-01T02:11:01.103Z,85.96
2018-02-01T02:12:01.116Z,86.05
2018-02-01T02:13:01.132Z,85.58
2018-02-01T02:14:01.146Z,86.34
2018-02-01T02:15:01.161Z,86.15
2018-02-01T02:16:01.178Z,85.39
2018-02-01T02:17:01.191Z,86.24
2018-02-01T02:18:01.204Z,86.20
2018-02-01T02:19:01.225Z,87.62
2018-02-01T02:20:01.242Z,86.77
2018-02-01T02:21:01.250Z,86.34
2018-02-01T02:22:01.270Z,86.01
2018-02-01T02:23:01.294Z,86.91
2018-02-01T02:24:01.299Z,86.91
2018-02-01T02:25:01.314Z,86.82
2018-02-01T02:26:01.327Z,85.96
2018-02-01T02:27:01.355Z,85.96
2018-02-01T02:28:01.357Z,85.58
2018-02-01T02:29:01.376Z,85.86
2018-02-01T02:30:01.389Z,85.68
2018-02-01T02:31:01.410Z,85.49
2018-02-01T02:32:01.421Z,86.43
2018-02-01T02:33:01.436Z,86.15
2018-02-01T02:34:01.450Z,86.77
2018-02-01T02:35:01.467Z,87.38
2018-02-01T02:36:01.485Z,87.43
2018-02-01T02:37:01.498Z,87.67
2018-02-01T02:38:01.512Z,86.05
2018-02-01T02:39:01.533Z,85.49
2018-02-01T02:40:01.541Z,85.77
2018-02-01T02:41:01.557Z,86.43
2018-02-01T02:42:01.574Z,86.43
2018-02-01T02:43:01.588Z,86.24
2018-02-01T02:44:01.607Z,86.24
2018-02-01T02:45:01.618Z,85.86
2018-02-01T02:46:01.631Z,86.24
2018-02-01T02:47:01.655Z,86.24
2018-02-01T02:48:01.667Z,86.05
2018-02-01T02:49:01.679Z,85.58
2018-02-01T02:50:01.696Z,85.58
2018-02-01T02:51:01.710Z,85.01
2018-02-01T02:52:01.747Z,85.49
2018-02-01T02:53:01.738Z,86.05
2018-02-01T02:54:01.754Z,86.05
2018-02-01T02:55:01.799Z,85.58
2018-02-01T02:56:01.792Z,85.77
2018-02-01T02:57:01.841Z,85.49
2018-02-01T02:58:01.815Z,85.72
2018-02-01T02:59:01.837Z,86.20
2018-02-01T03:00:01.847Z,85.82
2018-02-01T03:01:01.861Z,85.63
2018-02-01T03:02:01.879Z,85.35
2018-02-01T03:03:01.893Z,86.01
2018-02-01T03:04:01.903Z,86.30
2018-02-01T03:05:01.921Z,86.11
2018-02-01T03:06:01.944Z,85.44
2018-02-01T03:07:01.953Z,85.86
2018-02-01T03:08:01.992Z,85.53
2018-02-01T03:09:01.982Z,85.63
2018-02-01T03:10:02.000Z,85.53
2018-02-01T03:11:02.014Z,85.30
2018-02-01T03:12:02.029Z,84.68
2018-02-01T03:13:02.047Z,85.25
2018-02-01T03:14:02.059Z,85.82
2018-02-01T03:15:02.076Z,85.53
2018-02-01T03:16:02.089Z,86.49
2018-02-01T03:17:02.106Z,86.49
2018-02-01T03:18:02.122Z,86.39
2018-02-01T03:19:02.138Z,85.68
2018-02-01T03:20:02.159Z,85.16
2018-02-01T03:21:02.167Z,85.91
2018-02-01T03:22:02.180Z,86.20
2018-02-01T03:23:02.201Z,86.01
2018-02-01T03:24:02.210Z,86.68
2018-02-01T03:25:02.226Z,86.87
2018-02-01T03:26:02.247Z,87.24
2018-02-01T03:27:02.259Z,87.43
2018-02-01T03:28:02.279Z,86.77
2018-02-01T03:29:02.300Z,86.68
2018-02-01T03:30:02.309Z,86.49
2018-02-01T03:31:02.320Z,85.68
2018-02-01T03:32:02.333Z,85.11
2018-02-01T03:33:02.351Z,85.30
2018-02-01T03:34:02.365Z,85.11
2018-02-01T03:35:02.383Z,85.63
2018-02-01T03:36:02.393Z,86.20
2018-02-01T03:37:02.414Z,86.68
2018-02-01T03:38:02.432Z,86.34
2018-02-01T03:39:02.446Z,86.39
2018-02-01T03:40:02.456Z,86.05
2018-02-01T03:41:02.487Z,85.01
2018-02-01T03:42:02.491Z,84.91
2018-02-01T03:43:02.504Z,84.63
2018-02-01T03:44:02.519Z,84.06
2018-02-01T03:45:02.535Z,84.06
2018-02-01T03:46:02.556Z,84.63
2018-02-01T03:47:02.565Z,84.53
2018-02-01T03:48:02.593Z,84.82
2018-02-01T03:49:02.598Z,85.44
2018-02-01T03:50:02.611Z,86.01
2018-02-01T03:51:02.627Z,86.24
2018-02-01T03:52:02.641Z,85.35
2018-02-01T03:53:02.664Z,85.44
2018-02-01T03:54:02.673Z,86.20
2018-02-01T03:55:02.688Z,85.82
2018-02-01T03:56:02.704Z,86.58
2018-02-01T03:57:02.720Z,86.68
2018-02-01T03:58:02.735Z,85.44
2018-02-01T03:59:02.749Z,84.53
2018-02-01T04:00:02.764Z,84.97
2018-02-01T04:01:02.791Z,84.87
2018-02-01T04:02:02.795Z,84.40
2018-02-01T04:03:02.817Z,85.30
2018-02-01T04:04:02.869Z,84.91
2018-02-01T04:05:02.849Z,84.01
2018-02-01T04:06:02.858Z,85.16
2018-02-01T04:07:02.870Z,84.78
2018-02-01T04:08:02.886Z,84.97
2018-02-01T04:09:02.904Z,84.25
2018-02-01T04:10:02.918Z,83.36
2018-02-01T04:11:02.932Z,83.20
2018-02-01T04:12:02.946Z,82.07
2018-02-01T04:13:02.977Z,82.16
2018-02-01T04:14:02.979Z,82.07
2018-02-01T04:15:02.998Z,81.97
2018-02-01T04:16:03.013Z,81.26
2018-02-01T04:17:03.031Z,82.03
2018-02-01T04:18:03.042Z,81.84
2018-02-01T04:19:03.065Z,81.74
2018-02-01T04:20:03.071Z,80.79
2018-02-01T04:21:03.085Z,81.12
2018-02-01T04:22:03.102Z,81.17
2018-02-01T04:23:03.120Z,80.98
2018-02-01T04:24:03.132Z,81.65
2018-02-01T04:25:03.146Z,81.87
2018-02-01T04:26:03.161Z,81.17
2018-02-01T04:27:03.179Z,81.55
2018-02-01T04:28:03.191Z,81.17
2018-02-01T04:29:03.207Z,81.45
2018-02-01T04:30:03.225Z,81.07
2018-02-01T04:31:03.243Z,81.26
2018-02-01T04:32:03.255Z,81.55
2018-02-01T04:33:03.265Z,81.65
2018-02-01T04:34:03.282Z,80.98
2018-02-01T04:35:03.296Z,80.41
2018-02-01T04:36:03.313Z,80.41
2018-02-01T04:37:03.498Z,80.32
2018-02-01T04:38:03.343Z,80.98
2018-02-01T04:39:03.358Z,81.07
2018-02-01T04:40:03.367Z,81.26
2018-02-01T04:41:03.387Z,81.26
2018-02-01T04:42:03.403Z,81.07
2018-02-01T04:43:03.417Z,81.07
2018-02-01T04:44:03.442Z,81.07
2018-02-01T04:45:03.447Z,81.07
2018-02-01T04:46:03.468Z,81.26
2018-02-01T04:47:03.476Z,81.17
2018-02-01T04:48:03.489Z,81.26
2018-02-01T04:49:03.521Z,80.79
2018-02-01T04:50:03.520Z,80.88
2018-02-01T04:51:03.534Z,81.26
2018-02-01T04:52:03.551Z,80.69
2018-02-01T04:53:03.562Z,80.69
2018-02-01T04:54:03.581Z,80.60
2018-02-01T04:55:03.597Z,79.84
2018-02-01T04:56:03.618Z,79.36
2018-02-01T04:57:03.625Z,80.03
2018-02-01T04:58:03.641Z,79.74
2018-02-01T04:59:03.652Z,79.65
2018-02-01T05:00:03.673Z,79.74
2018-02-01T05:01:03.682Z,80.51
2018-02-01T05:02:03.701Z,80.69
2018-02-01T05:03:03.713Z,80.51
2018-02-01T05:04:03.736Z,80.32
2018-02-01T05:05:03.741Z,80.41
2018-02-01T05:06:03.757Z,81.17
2018-02-01T05:07:03.778Z,80.51
2018-02-01T05:08:03.786Z,80.13
2018-02-01T05:09:03.804Z,80.51
2018-02-01T05:10:03.818Z,80.60
2018-02-01T05:11:03.834Z,80.41
2018-02-01T05:12:03.843Z,79.94
2018-02-01T05:13:03.861Z,79.94
2018-02-01T05:14:03.916Z,80.32
2018-02-01T05:15:03.893Z,80.03
2018-02-01T05:16:03.905Z,80.60
2018-02-01T05:17:03.931Z,80.98
2018-02-01T05:18:03.936Z,80.51
2018-02-01T05:19:03.949Z,80.32
2018-02-01T05:20:03.966Z,81.07
2018-02-01T05:21:03.984Z,81.07
2018-02-01T05:22:03.997Z,80.69
2018-02-01T05:23:04.037Z,81.55
2018-02-01T05:24:04.028Z,81.93
2018-02-01T05:25:04.040Z,81.17
2018-02-01T05:26:04.054Z,80.88
2018-02-01T05:27:04.072Z,81.26
2018-02-01T05:28:04.131Z,81.07
2018-02-01T05:29:04.120Z,81.26
2018-02-01T05:30:04.125Z,81.26
2018-02-01T05:31:04.136Z,81.17
2018-02-01T05:32:04.143Z,81.45
2018-02-01T05:33:04.157Z,81.45
2018-02-01T05:34:04.177Z,81.74
2018-02-01T05:35:04.201Z,81.45
2018-02-01T05:36:04.202Z,81.55
2018-02-01T05:37:04.218Z,82.12
2018-02-01T05:38:04.232Z,82.12
2018-02-01T05:39:04.249Z,81.74
2018-02-01T05:40:04.260Z,82.59
2018-02-01T05:41:04.272Z,82.59
2018-02-01T05:42:04.291Z,82.69
2018-02-01T05:43:04.305Z,82.65
2018-02-01T05:44:04.317Z,82.21
2018-02-01T05:45:04.328Z,81.93
2018-02-01T05:46:04.352Z,82.12
2018-02-01T05:47:04.400Z,81.74
2018-02-01T05:48:04.378Z,82.03
2018-02-01T05:49:04.394Z,81.98
2018-02-01T05:50:04.407Z,82.65
2018-02-01T05:51:04.420Z,82.03
2018-02-01T05:52:04.435Z,82.12
2018-02-01T05:53:04.451Z,82.12
2018-02-01T05:54:04.465Z,81.55
2018-02-01T05:55:04.480Z,80.88
2018-02-01T05:56:04.502Z,81.07
2018-02-01T05:57:04.508Z,81.17
2018-02-01T05:58:04.522Z,80.98
2018-02-01T05:59:04.550Z,81.36
2018-02-01T06:00:04.550Z,81.04
2018-02-01T06:01:04.564Z,81.74
2018-02-01T06:02:04.579Z,81.65
2018-02-01T06:03:04.596Z,81.26
2018-02-01T06:04:04.611Z,81.36
2018-02-01T06:05:04.620Z,81.26
2018-02-01T06:06:04.632Z,81.45
2018-02-01T06:07:04.660Z,81.79
2018-02-01T06:08:04.675Z,81.65
2018-02-01T06:09:04.679Z,81.74
2018-02-01T06:10:04.710Z,81.84
2018-02-01T06:11:04.716Z,81.93
2018-02-01T06:12:04.722Z,82.03
2018-02-01T06:13:04.735Z,81.74
2018-02-01T06:14:04.750Z,81.74
2018-02-01T06:15:04.765Z,81.07
2018-02-01T06:16:04.780Z,81.74
2018-02-01T06:17:04.793Z,81.84
2018-02-01T06:18:04.810Z,81.84
2018-02-01T06:19:04.821Z,81.26
2018-02-01T06:20:04.838Z,81.07
2018-02-01T06:21:04.853Z,81.36
2018-02-01T06:22:04.871Z,81.74
2018-02-01T06:23:04.881Z,81.65
2018-02-01T06:24:04.896Z,81.65
2018-02-01T06:25:04.910Z,81.65
2018-02-01T06:26:04.926Z,82.12
2018-02-01T06:27:04.939Z,81.65
2018-02-01T06:28:04.956Z,81.93
2018-02-01T06:29:04.974Z,81.84
2018-02-01T06:30:04.986Z,81.45
2018-02-01T06:31:05.000Z,82.03
2018-02-01T06:32:05.017Z,82.31
2018-02-01T06:33:05.038Z,82.69
2018-02-01T06:34:05.043Z,83.54
2018-02-01T06:35:05.066Z,83.64
2018-02-01T06:36:05.113Z,83.16
2018-02-01T06:37:05.088Z,82.69
2018-02-01T06:38:05.104Z,83.07
2018-02-01T06:39:05.116Z,83.64
2018-02-01T06:40:05.137Z,85.02
2018-02-01T06:41:05.151Z,84.78
2018-02-01T06:42:05.160Z,84.49
2018-02-01T06:43:05.174Z,83.92
2018-02-01T06:44:05.193Z,83.64
2018-02-01T06:45:05.208Z,84.59
2018-02-01T06:46:05.229Z,85.21
2018-02-01T06:47:05.233Z,84.68
2018-02-01T06:48:05.249Z,84.21
2018-02-01T06:49:05.267Z,83.64
2018-02-01T06:50:05.285Z,84.40
2018-02-01T06:51:05.294Z,85.53
2018-02-01T06:52:05.308Z,84.68
2018-02-01T06:53:05.324Z,84.40
2018-02-01T06:54:05.336Z,84.59
2018-02-01T06:55:05.350Z,84.45
2018-02-01T06:56:05.367Z,85.40
2018-02-01T06:57:05.384Z,85.35
2018-02-01T06:58:05.397Z,85.16
2018-02-01T06:59:05.414Z,84.11
2018-02-01T07:00:05.428Z,84.68
2018-02-01T07:01:05.442Z,84.97
2018-02-01T07:02:05.456Z,85.06
2018-02-01T07:03:05.477Z,86.16
2018-02-01T07:04:05.492Z,86.44
2018-02-01T07:05:05.504Z,87.30
2018-02-01T07:06:05.519Z,87.96
2018-02-01T07:07:05.539Z,88.81
2018-02-01T07:08:05.548Z,88.62
2018-02-01T07:09:05.571Z,88.15
2018-02-01T07:10:05.582Z,86.63
2018-02-01T07:11:05.595Z,86.07
2018-02-01T07:12:05.613Z,86.44
2018-02-01T07:13:05.627Z,87.35
2018-02-01T07:14:05.639Z,87.39
2018-02-01T07:15:05.654Z,86.54
2018-02-01T07:16:05.672Z,86.07
2018-02-01T07:17:05.692Z,86.11
2018-02-01T07:18:05.696Z,84.88
2018-02-01T07:19:05.717Z,84.41
2018-02-01T07:20:05.731Z,84.88
2018-02-01T07:21:05.745Z,84.74
2018-02-01T07:22:05.805Z,84.26
2018-02-01T07:23:05.778Z,83.12
2018-02-01T07:24:05.788Z,83.03
2018-02-01T07:25:05.821Z,82.17
2018-02-01T07:26:05.823Z,82.46
2018-02-01T07:27:05.835Z,83.12
2018-02-01T07:28:05.848Z,83.40
2018-02-01T07:29:05.863Z,82.27
2018-02-01T07:30:05.878Z,82.46
2018-02-01T07:31:05.893Z,82.46
2018-02-01T07:32:05.904Z,82.74
2018-02-01T07:33:05.921Z,82.84
2018-02-01T07:34:05.953Z,82.93
2018-02-01T07:35:05.961Z,83.12
2018-02-01T07:36:05.968Z,82.17
2018-02-01T07:37:05.994Z,82.08
2018-02-01T07:38:05.999Z,82.46
2018-02-01T07:39:06.010Z,82.08
2018-02-01T07:40:06.025Z,82.27
2018-02-01T07:41:06.043Z,82.65
2018-02-01T07:42:06.076Z,82.27
2018-02-01T07:43:06.079Z,82.08
2018-02-01T07:44:06.085Z,82.27
2018-02-01T07:45:06.098Z,81.98
2018-02-01T07:46:06.119Z,82.17
2018-02-01T07:47:06.123Z,82.93
2018-02-01T07:48:06.141Z,82.65
2018-02-01T07:49:06.154Z,82.46
2018-02-01T07:50:06.173Z,81.88
2018-02-01T07:51:06.190Z,81.70
2018-02-01T07:52:06.205Z,82.08
2018-02-01T07:53:06.213Z,81.85
2018-02-01T07:54:06.229Z,83.59
2018-02-01T07:55:06.243Z,82.79
2018-02-01T07:56:06.255Z,82.93
2018-02-01T07:57:06.274Z,82.08
2018-02-01T07:58:06.282Z,82.42
2018-02-01T07:59:06.297Z,83.12
2018-02-01T08:00:07.843Z,82.93
2018-02-01T08:01:06.328Z,82.42
2018-02-01T08:02:06.341Z,83.65
2018-02-01T08:03:06.355Z,84.12
2018-02-01T08:04:06.371Z,83.36
2018-02-01T08:05:06.384Z,83.36
2018-02-01T08:06:06.405Z,83.31
2018-02-01T08:07:06.416Z,82.17
2018-02-01T08:08:06.428Z,81.41
2018-02-01T08:09:06.443Z,82.08
2018-02-01T08:10:06.463Z,83.50
2018-02-01T08:11:06.471Z,83.22
2018-02-01T08:12:06.485Z,82.08
2018-02-01T08:13:06.500Z,81.79
2018-02-01T08:14:06.514Z,82.17
2018-02-01T08:15:06.529Z,82.08
2018-02-01T08:16:06.542Z,82.08
2018-02-01T08:17:06.558Z,82.17
2018-02-01T08:18:06.575Z,81.98
2018-02-01T08:19:06.587Z,82.27
2018-02-01T08:20:06.601Z,82.60
2018-02-01T08:21:06.619Z,83.97
2018-02-01T08:22:06.629Z,84.22
2018-02-01T08:23:06.646Z,84.64
2018-02-01T08:24:06.656Z,84.17
2018-02-01T08:25:06.674Z,83.97
2018-02-01T08:26:06.707Z,83.12
2018-02-01T08:27:06.695Z,82.74
2018-02-01T08:28:06.715Z,82.36
2018-02-01T08:29:06.726Z,82.55
2018-02-01T08:30:06.743Z,82.93
2018-02-01T08:31:06.760Z,83.94
2018-02-01T08:32:06.767Z,85.49
2018-02-01T08:33:06.806Z,85.59
2018-02-01T08:34:06.802Z,85.40
2018-02-01T08:35:06.816Z,84.26
2018-02-01T08:36:06.832Z,83.69
2018-02-01T08:37:06.846Z,83.88
2018-02-01T08:38:06.868Z,84.26
2018-02-01T08:39:06.880Z,83.88
2018-02-01T08:40:06.889Z,84.98
2018-02-01T08:41:06.947Z,86.11
2018-02-01T08:42:06.919Z,86.49
2018-02-01T08:43:06.933Z,85.93
2018-02-01T08:44:06.951Z,86.68
2018-02-01T08:45:06.977Z,86.35
2018-02-01T08:46:06.974Z,85.02
2018-02-01T08:47:06.993Z,84.36
2018-02-01T08:48:07.004Z,85.11
2018-02-01T08:49:07.021Z,85.59
2018-02-01T08:50:07.030Z,84.26
2018-02-01T08:51:07.050Z,83.59
2018-02-01T08:52:07.065Z,83.50
2018-02-01T08:53:07.082Z,83.59
2018-02-01T08:54:07.094Z,84.26
2018-02-01T08:55:07.109Z,84.45
2018-02-01T08:56:07.125Z,84.92
2018-02-01T08:57:07.132Z,85.17
2018-02-01T08:58:07.157Z,86.02
2018-02-01T08:59:07.166Z,85.30
2018-02-01T09:00:07.180Z,85.78
2018-02-01T09:01:07.195Z,85.11
2018-02-01T09:02:07.213Z,84.31
2018-02-01T09:03:07.224Z,84.83
2018-02-01T09:04:07.233Z,84.45
2018-02-01T09:05:07.254Z,84.55
2018-02-01T09:06:07.315Z,84.45
2018-02-01T09:07:07.283Z,84.36
2018-02-01T09:08:07.304Z,84.36
2018-02-01T09:09:07.315Z,83.88
2018-02-01T09:10:07.343Z,83.97
2018-02-01T09:11:07.346Z,83.40
2018-02-01T09:12:07.359Z,83.69
2018-02-01T09:13:07.379Z,83.59
2018-02-01T09:14:07.386Z,83.74
2018-02-01T09:15:07.430Z,84.36
2018-02-01T09:16:07.420Z,84.98
2018-02-01T09:17:07.432Z,85.02
2018-02-01T09:18:07.443Z,84.36
2018-02-01T09:19:07.463Z,84.64
2018-02-01T09:20:07.471Z,84.64
2018-02-01T09:21:07.489Z,84.45
2018-02-01T09:22:07.512Z,85.11
2018-02-01T09:23:07.519Z,84.55
2018-02-01T09:24:07.542Z,84.83
2018-02-01T09:25:07.551Z,83.78
2018-02-01T09:26:07.563Z,81.98
2018-02-01T09:27:07.578Z,82.84
2018-02-01T09:28:07.593Z,82.55
2018-02-01T09:29:07.611Z,82.46
2018-02-01T09:30:07.621Z,83.40
2018-02-01T09:31:07.639Z,83.97
2018-02-01T09:32:07.651Z,81.98
2018-02-01T09:33:07.669Z,81.79
2018-02-01T09:34:07.681Z,81.36
2018-02-01T09:35:07.725Z,81.70
2018-02-01T09:36:07.713Z,81.26
2018-02-01T09:37:07.724Z,82.08
2018-02-01T09:38:07.738Z,83.22
2018-02-01T09:39:07.756Z,83.50
2018-02-01T09:40:07.769Z,83.40
2018-02-01T09:41:07.782Z,83.50
2018-02-01T09:42:07.798Z,82.55
2018-02-01T09:43:07.811Z,82.27
2018-02-01T09:44:07.827Z,82.17
2018-02-01T09:45:07.840Z,82.65
2018-02-01T09:46:07.855Z,82.84
2018-02-01T09:47:07.870Z,83.31
2018-02-01T09:48:07.884Z,83.69
2018-02-01T09:49:07.902Z,83.88
2018-02-01T09:50:07.915Z,84.45
2018-02-01T09:51:07.934Z,83.97
2018-02-01T09:52:07.946Z,83.40
2018-02-01T09:53:07.959Z,83.78
2018-02-01T09:54:07.975Z,83.40
2018-02-01T09:55:07.994Z,82.46
2018-02-01T09:56:08.004Z,83.50
2018-02-01T09:57:08.014Z,83.97
2018-02-01T09:58:08.034Z,84.26
2018-02-01T09:59:08.047Z,83.31
2018-02-01T10:00:08.063Z,83.31
2018-02-01T10:01:08.094Z,84.31
2018-02-01T10:02:08.090Z,84.55
2018-02-01T10:03:08.109Z,84.36
2018-02-01T10:04:08.128Z,84.41
2018-02-01T10:05:08.132Z,85.07
2018-02-01T10:06:08.150Z,83.97
2018-02-01T10:07:08.166Z,84.03
2018-02-01T10:08:08.179Z,84.12
2018-02-01T10:09:08.198Z,83.97
2018-02-01T10:10:08.203Z,84.03
2018-02-01T10:11:08.223Z,83.36
2018-02-01T10:12:08.235Z,84.22
2018-02-01T10:13:08.246Z,83.36
2018-02-01T10:14:08.263Z,83.74
2018-02-01T10:15:08.284Z,84.17
2018-02-01T10:16:09.867Z,83.50
2018-02-01T10:17:08.317Z,83.03
2018-02-01T10:18:08.325Z,81.98
2018-02-01T10:19:08.339Z,82.46
2018-02-01T10:20:08.353Z,82.65
2018-02-01T10:21:08.374Z,82.65
2018-02-01T10:22:08.381Z,82.65
2018-02-01T10:23:08.400Z,81.60
2018-02-01T10:24:08.415Z,81.79
2018-02-01T10:25:08.431Z,81.51
2018-02-01T10:26:08.442Z,82.08
2018-02-01T10:27:08.455Z,82.84
2018-02-01T10:28:08.468Z,82.60
2018-02-01T10:29:08.485Z,82.17
2018-02-01T10:30:08.520Z,81.98
2018-02-01T10:31:08.531Z,83.12
2018-02-01T10:32:08.526Z,82.65
2018-02-01T10:33:08.544Z,83.69
2018-02-01T10:34:08.558Z,83.88
2018-02-01T10:35:08.574Z,84.36
2018-02-01T10:36:08.589Z,83.40
2018-02-01T10:37:08.603Z,83.59
2018-02-01T10:38:08.617Z,84.07
2018-02-01T10:39:08.638Z,83.50
2018-02-01T10:40:08.646Z,83.78
2018-02-01T10:41:08.687Z,83.12
2018-02-01T10:42:08.675Z,81.51
2018-02-01T10:43:08.746Z,81.51
2018-02-01T10:44:08.705Z,81.23
2018-02-01T10:45:08.722Z,79.55
2018-02-01T10:46:08.736Z,80.03
2018-02-01T10:47:08.755Z,78.89
2018-02-01T10:48:08.764Z,77.94
2018-02-01T10:49:08.778Z,77.28
2018-02-01T10:50:08.789Z,76.04
2018-02-01T10:51:08.809Z,75.85
2018-02-01T10:52:08.824Z,76.52
2018-02-01T10:53:08.838Z,76.04
2018-02-01T10:54:08.853Z,76.04
2018-02-01T10:55:08.875Z,75.76
2018-02-01T10:56:08.884Z,75.85
2018-02-01T10:57:08.898Z,72.68
2018-02-01T10:58:08.915Z,71.67
2018-02-01T10:59:08.930Z,71.20
2018-02-01T11:00:08.981Z,71.11
2018-02-01T11:01:08.967Z,69.68
2018-02-01T11:02:08.977Z,70.12
2018-02-01T11:03:08.988Z,70.50
2018-02-01T11:04:09.004Z,71.17
2018-02-01T11:05:09.018Z,70.63
2018-02-01T11:06:09.032Z,69.40
2018-02-01T11:07:09.051Z,68.83
2018-02-01T11:08:09.064Z,68.26
2018-02-01T11:09:09.081Z,66.93
2018-02-01T11:10:09.094Z,67.08
2018-02-01T11:11:09.109Z,67.97
2018-02-01T11:12:09.127Z,68.64
2018-02-01T11:13:09.147Z,68.89
2018-02-01T11:14:09.149Z,68.79
2018-02-01T11:15:09.166Z,68.16
2018-02-01T11:16:09.189Z,67.97
2018-02-01T11:17:09.198Z,66.71
2018-02-01T11:18:09.214Z,67.08
2018-02-01T11:19:09.228Z,68.23
2018-02-01T11:20:09.243Z,68.04
2018-02-01T11:21:09.257Z,68.60
2018-02-01T11:22:09.273Z,69.55
2018-02-01T11:23:09.289Z,68.73
2018-02-01T11:24:09.306Z,67.50
2018-02-01T11:25:09.331Z,67.59
2018-02-01T11:26:09.338Z,67.21
2018-02-01T11:27:09.346Z,68.16
2018-02-01T11:28:09.361Z,68.23
2018-02-01T11:29:09.372Z,68.60
2018-02-01T11:30:09.393Z,67.94
2018-02-01T11:31:09.408Z,67.75
2018-02-01T11:32:09.420Z,66.99
2018-02-01T11:33:09.442Z,67.02
2018-02-01T11:34:09.454Z,67.27
2018-02-01T11:35:09.465Z,66.89
2018-02-01T11:36:09.485Z,67.46
2018-02-01T11:37:09.499Z,68.23
2018-02-01T11:38:09.520Z,67.59
2018-02-01T11:39:09.523Z,66.64
2018-02-01T11:40:09.538Z,66.64
2018-02-01T11:41:09.552Z,66.80
2018-02-01T11:42:09.585Z,66.64
2018-02-01T11:43:09.584Z,65.31
2018-02-01T11:44:09.602Z,65.03
2018-02-01T11:45:09.612Z,65.31
2018-02-01T11:46:09.624Z,65.60
2018-02-01T11:47:09.645Z,65.69
2018-02-01T11:48:09.660Z,65.50
2018-02-01T11:49:09.675Z,65.12
2018-02-01T11:50:09.697Z,64.46
2018-02-01T11:51:09.704Z,64.94
2018-02-01T11:52:09.716Z,65.03
2018-02-01T11:53:09.729Z,64.75
2018-02-01T11:54:09.742Z,65.12
2018-02-01T11:55:09.785Z,65.03
2018-02-01T11:56:09.789Z,64.21
2018-02-01T11:57:09.791Z,62.88
2018-02-01T11:58:09.804Z,62.21
2018-02-01T11:59:09.827Z,62.21
2018-02-01T12:00:09.842Z,62.59
2018-02-01T12:01:09.853Z,62.88
2018-02-01T12:02:09.919Z,63.64
2018-02-01T12:03:09.890Z,62.78
2018-02-01T12:04:09.895Z,62.31
2018-02-01T12:05:09.911Z,62.78
2018-02-01T12:06:09.921Z,62.88
2018-02-01T12:07:09.945Z,62.34
2018-02-01T12:08:09.961Z,61.83
2018-02-01T12:09:09.977Z,62.31
2018-02-01T12:10:09.992Z,62.50
2018-02-01T12:11:10.005Z,62.02
2018-02-01T12:12:10.032Z,62.59
2018-02-01T12:13:10.034Z,62.31
2018-02-01T12:14:10.054Z,61.68
2018-02-01T12:15:10.069Z,61.77
2018-02-01T12:16:10.086Z,62.15
2018-02-01T12:17:10.101Z,62.05
2018-02-01T12:18:10.109Z,61.55
2018-02-01T12:19:10.126Z,62.31
2018-02-01T12:20:10.142Z,62.53
2018-02-01T12:21:10.166Z,61.20
2018-02-01T12:22:10.178Z,61.01
2018-02-01T12:23:10.194Z,60.35
2018-02-01T12:24:10.209Z,59.49
2018-02-01T12:25:10.224Z,59.68
2018-02-01T12:26:10.233Z,60.06
2018-02-01T12:27:10.253Z,60.06
2018-02-01T12:28:10.263Z,60.35
2018-02-01T12:29:10.294Z,59.84
2018-02-01T12:30:10.308Z,60.03
2018-02-01T12:31:10.322Z,60.79
2018-02-01T12:32:10.335Z,61.93
2018-02-01T12:33:10.353Z,61.45
2018-02-01T12:34:10.363Z,61.45
2018-02-01T12:35:10.382Z,60.88
2018-02-01T12:36:10.406Z,59.58
2018-02-01T12:37:10.412Z,58.73
2018-02-01T12:38:10.428Z,59.30
2018-02-01T12:39:10.443Z,59.58
2018-02-01T12:40:10.471Z,58.37
2018-02-01T12:41:10.475Z,59.30
2018-02-01T12:42:10.500Z,59.58
2018-02-01T12:43:10.514Z,59.30
2018-02-01T12:44:10.525Z,58.92
2018-02-01T12:45:10.540Z,60.22
2018-02-01T12:46:10.564Z,60.69
2018-02-01T12:47:10.576Z,60.79
2018-02-01T12:48:10.591Z,59.74
2018-02-01T12:49:10.603Z,58.80
2018-02-01T12:50:10.622Z,58.89
2018-02-01T12:51:10.639Z,59.08
2018-02-01T12:52:10.666Z,58.70
2018-02-01T12:53:10.675Z,58.61